sensor_id;sensor_type;location;lat;lon;timestamp;temperature;humidity
3868;DHT22;1949;48.152;11.528;2022-09-16T00:01:18;20.80;50.70
3868;DHT22;1949;48.152;11.528;2022-09-16T00:07:38;20.80;50.70
3868;DHT22;1949;48.152;11.528;2022-09-16T00:10:16;20.90;50.60
3868;DHT22;1949;48.152;11.528;2022-09-16T00:13:00;20.90;50.70
3868;DHT22;1949;48.152;11.528;2022-09-16T00:19:22;20.80;50.30
3868;DHT22;1949;48.152;11.528;2022-09-16T00:28:34;20.70;50.50
3868;DHT22;1949;48.152;11.528;2022-09-16T00:37:45;20.70;50.50
3868;DHT22;1949;48.152;11.528;2022-09-16T00:50:16;20.70;50.60
3868;DHT22;1949;48.152;11.528;2022-09-16T00:59:41;20.70;50.70
3868;DHT22;1949;48.152;11.528;2022-09-16T01:05:50;20.70;50.70
3868;DHT22;1949;48.152;11.528;2022-09-16T01:15:30;20.60;50.50
3868;DHT22;1949;48.152;11.528;2022-09-16T01:18:11;20.60;50.70
3868;DHT22;1949;48.152;11.528;2022-09-16T01:24:12;20.50;50.70
3868;DHT22;1949;48.152;11.528;2022-09-16T01:30:19;20.60;51.00
3868;DHT22;1949;48.152;11.528;2022-09-16T01:33:05;20.60;51.10
3868;DHT22;1949;48.152;11.528;2022-09-16T01:36:07;20.60;51.00
3868;DHT22;1949;48.152;11.528;2022-09-16T02:02:15;20.50;50.80
3868;DHT22;1949;48.152;11.528;2022-09-16T02:08:16;20.50;50.80
3868;DHT22;1949;48.152;11.528;2022-09-16T02:11:18;20.50;50.70
3868;DHT22;1949;48.152;11.528;2022-09-16T02:20:31;20.50;50.70
3868;DHT22;1949;48.152;11.528;2022-09-16T02:23:21;20.50;50.70
3868;DHT22;1949;48.152;11.528;2022-09-16T02:29:20;20.50;50.80
3868;DHT22;1949;48.152;11.528;2022-09-16T02:31:47;20.50;50.80
3868;DHT22;1949;48.152;11.528;2022-09-16T02:34:19;20.40;50.70
3868;DHT22;1949;48.152;11.528;2022-09-16T02:40:28;20.30;50.70
3868;DHT22;1949;48.152;11.528;2022-09-16T02:58:33;20.20;51.20
3868;DHT22;1949;48.152;11.528;2022-09-16T03:00:59;20.20;51.10
3868;DHT22;1949;48.152;11.528;2022-09-16T03:03:25;20.20;51.10
3868;DHT22;1949;48.152;11.528;2022-09-16T03:06:12;20.20;51.10
3868;DHT22;1949;48.152;11.528;2022-09-16T03:08:42;20.20;51.10
3868;DHT22;1949;48.152;11.528;2022-09-16T03:20:19;20.20;51.20
3868;DHT22;1949;48.152;11.528;2022-09-16T03:28:31;20.10;51.10
3868;DHT22;1949;48.152;11.528;2022-09-16T03:36:39;20.20;51.10
3868;DHT22;1949;48.152;11.528;2022-09-16T03:39:06;20.10;51.60
3868;DHT22;1949;48.152;11.528;2022-09-16T03:41:33;20.10;51.10
3868;DHT22;1949;48.152;11.528;2022-09-16T03:44:00;20.20;51.40
3868;DHT22;1949;48.152;11.528;2022-09-16T03:46:40;20.20;51.30
3868;DHT22;1949;48.152;11.528;2022-09-16T03:52:43;20.10;51.20
3868;DHT22;1949;48.152;11.528;2022-09-16T03:58:30;20.20;51.20
3868;DHT22;1949;48.152;11.528;2022-09-16T04:00:56;20.20;51.20
3868;DHT22;1949;48.152;11.528;2022-09-16T04:03:26;20.20;51.40
3868;DHT22;1949;48.152;11.528;2022-09-16T04:05:55;20.20;51.30
3868;DHT22;1949;48.152;11.528;2022-09-16T04:08:34;20.30;51.40
3868;DHT22;1949;48.152;11.528;2022-09-16T04:11:05;20.30;51.20
3868;DHT22;1949;48.152;11.528;2022-09-16T04:16:54;20.40;51.30
3868;DHT22;1949;48.152;11.528;2022-09-16T04:19:20;20.40;51.10
3868;DHT22;1949;48.152;11.528;2022-09-16T04:21:46;20.40;51.10
3868;DHT22;1949;48.152;11.528;2022-09-16T04:24:12;20.40;51.20
3868;DHT22;1949;48.152;11.528;2022-09-16T04:26:38;20.40;51.20
3868;DHT22;1949;48.152;11.528;2022-09-16T04:29:04;20.50;51.20
3868;DHT22;1949;48.152;11.528;2022-09-16T04:31:31;20.40;51.10
3868;DHT22;1949;48.152;11.528;2022-09-16T04:34:10;20.40;51.00
3868;DHT22;1949;48.152;11.528;2022-09-16T04:36:43;20.50;51.00
3868;DHT22;1949;48.152;11.528;2022-09-16T04:39:10;20.40;50.90
3868;DHT22;1949;48.152;11.528;2022-09-16T04:41:37;20.40;50.90
3868;DHT22;1949;48.152;11.528;2022-09-16T04:44:10;20.40;50.90
3868;DHT22;1949;48.152;11.528;2022-09-16T04:46:37;20.30;50.80
3868;DHT22;1949;48.152;11.528;2022-09-16T04:49:03;20.30;51.00
3868;DHT22;1949;48.152;11.528;2022-09-16T04:51:29;20.20;51.60
3868;DHT22;1949;48.152;11.528;2022-09-16T04:53:57;20.20;51.00
3868;DHT22;1949;48.152;11.528;2022-09-16T04:56:26;20.20;51.00
3868;DHT22;1949;48.152;11.528;2022-09-16T04:58:54;20.20;51.10
3868;DHT22;1949;48.152;11.528;2022-09-16T05:01:26;20.20;51.00
3868;DHT22;1949;48.152;11.528;2022-09-16T05:03:54;20.20;51.10
3868;DHT22;1949;48.152;11.528;2022-09-16T05:06:22;20.10;51.00
3868;DHT22;1949;48.152;11.528;2022-09-16T05:08:50;20.10;51.00
3868;DHT22;1949;48.152;11.528;2022-09-16T05:11:21;20.10;51.10
3868;DHT22;1949;48.152;11.528;2022-09-16T05:13:47;20.10;51.20
3868;DHT22;1949;48.152;11.528;2022-09-16T05:16:15;20.10;51.10
3868;DHT22;1949;48.152;11.528;2022-09-16T05:18:43;20.10;51.10
3868;DHT22;1949;48.152;11.528;2022-09-16T05:21:14;20.20;51.10
3868;DHT22;1949;48.152;11.528;2022-09-16T05:23:40;20.10;51.00
3868;DHT22;1949;48.152;11.528;2022-09-16T05:26:20;20.20;51.00
3868;DHT22;1949;48.152;11.528;2022-09-16T05:29:05;20.20;51.00
3868;DHT22;1949;48.152;11.528;2022-09-16T05:31:34;20.20;51.00
3868;DHT22;1949;48.152;11.528;2022-09-16T05:34:11;20.20;51.00
3868;DHT22;1949;48.152;11.528;2022-09-16T05:36:41;20.30;51.00
3868;DHT22;1949;48.152;11.528;2022-09-16T05:39:11;20.30;50.90
3868;DHT22;1949;48.152;11.528;2022-09-16T05:41:37;20.30;50.90
3868;DHT22;1949;48.152;11.528;2022-09-16T05:44:04;20.30;50.90
3868;DHT22;1949;48.152;11.528;2022-09-16T05:46:31;20.30;50.90
3868;DHT22;1949;48.152;11.528;2022-09-16T05:48:57;20.30;50.80
3868;DHT22;1949;48.152;11.528;2022-09-16T05:51:23;20.30;50.70
3868;DHT22;1949;48.152;11.528;2022-09-16T05:53:51;20.30;50.70
3868;DHT22;1949;48.152;11.528;2022-09-16T05:56:22;20.40;50.80
3868;DHT22;1949;48.152;11.528;2022-09-16T05:58:51;20.40;50.80
3868;DHT22;1949;48.152;11.528;2022-09-16T06:01:23;20.40;50.80
3868;DHT22;1949;48.152;11.528;2022-09-16T06:03:50;20.40;50.70
3868;DHT22;1949;48.152;11.528;2022-09-16T06:08:48;20.50;50.60
3868;DHT22;1949;48.152;11.528;2022-09-16T06:11:15;20.40;50.40
3868;DHT22;1949;48.152;11.528;2022-09-16T06:13:40;20.40;50.50
3868;DHT22;1949;48.152;11.528;2022-09-16T06:16:08;20.40;50.50
3868;DHT22;1949;48.152;11.528;2022-09-16T06:18:35;20.40;50.60
3868;DHT22;1949;48.152;11.528;2022-09-16T06:21:08;20.40;50.70
3868;DHT22;1949;48.152;11.528;2022-09-16T06:23:35;20.40;50.70
3868;DHT22;1949;48.152;11.528;2022-09-16T06:26:04;20.40;50.60
3868;DHT22;1949;48.152;11.528;2022-09-16T06:28:30;20.40;50.50
3868;DHT22;1949;48.152;11.528;2022-09-16T06:31:14;20.40;50.50
3868;DHT22;1949;48.152;11.528;2022-09-16T06:33:40;20.40;50.40
3868;DHT22;1949;48.152;11.528;2022-09-16T06:36:09;20.40;50.50
3868;DHT22;1949;48.152;11.528;2022-09-16T06:38:35;20.40;50.50
3868;DHT22;1949;48.152;11.528;2022-09-16T06:41:03;20.40;50.60
3868;DHT22;1949;48.152;11.528;2022-09-16T06:43:29;20.40;50.60
3868;DHT22;1949;48.152;11.528;2022-09-16T06:45:59;20.40;50.60
3868;DHT22;1949;48.152;11.528;2022-09-16T06:48:27;20.40;50.60
3868;DHT22;1949;48.152;11.528;2022-09-16T06:51:02;20.40;50.60
3868;DHT22;1949;48.152;11.528;2022-09-16T06:53:31;20.40;50.50
3868;DHT22;1949;48.152;11.528;2022-09-16T06:56:05;20.40;50.50
3868;DHT22;1949;48.152;11.528;2022-09-16T06:58:34;20.40;50.50
3868;DHT22;1949;48.152;11.528;2022-09-16T07:01:07;20.40;50.50
3868;DHT22;1949;48.152;11.528;2022-09-16T07:03:37;20.40;50.60
3868;DHT22;1949;48.152;11.528;2022-09-16T07:06:03;20.40;50.50
3868;DHT22;1949;48.152;11.528;2022-09-16T07:08:31;20.40;50.50
3868;DHT22;1949;48.152;11.528;2022-09-16T07:11:10;20.50;50.60
3868;DHT22;1949;48.152;11.528;2022-09-16T07:13:36;20.50;50.60
3868;DHT22;1949;48.152;11.528;2022-09-16T07:16:08;20.50;50.40
3868;DHT22;1949;48.152;11.528;2022-09-16T07:18:36;20.50;50.40
3868;DHT22;1949;48.152;11.528;2022-09-16T07:21:09;20.60;50.50
3868;DHT22;1949;48.152;11.528;2022-09-16T07:23:42;20.60;50.50
3868;DHT22;1949;48.152;11.528;2022-09-16T07:28:37;20.60;50.40
3868;DHT22;1949;48.152;11.528;2022-09-16T07:31:06;20.60;50.40
3868;DHT22;1949;48.152;11.528;2022-09-16T07:33:35;20.60;50.40
3868;DHT22;1949;48.152;11.528;2022-09-16T07:36:02;20.60;50.30
3868;DHT22;1949;48.152;11.528;2022-09-16T07:38:31;20.60;50.30
3868;DHT22;1949;48.152;11.528;2022-09-16T07:41:29;20.60;50.20
3868;DHT22;1949;48.152;11.528;2022-09-16T07:43:57;20.60;50.20
3868;DHT22;1949;48.152;11.528;2022-09-16T07:46:25;20.50;50.00
3868;DHT22;1949;48.152;11.528;2022-09-16T07:48:51;20.50;49.90
3868;DHT22;1949;48.152;11.528;2022-09-16T07:51:20;20.40;50.00
3868;DHT22;1949;48.152;11.528;2022-09-16T07:53:59;20.40;50.20
3868;DHT22;1949;48.152;11.528;2022-09-16T07:56:27;20.30;50.20
3868;DHT22;1949;48.152;11.528;2022-09-16T07:58:54;20.40;50.40
3868;DHT22;1949;48.152;11.528;2022-09-16T08:01:22;20.30;50.20
3868;DHT22;1949;48.152;11.528;2022-09-16T08:03:57;20.40;50.20
3868;DHT22;1949;48.152;11.528;2022-09-16T08:06:29;20.40;50.20
3868;DHT22;1949;48.152;11.528;2022-09-16T08:08:57;20.30;50.10
3868;DHT22;1949;48.152;11.528;2022-09-16T08:11:25;20.30;50.10
3868;DHT22;1949;48.152;11.528;2022-09-16T08:13:59;20.30;50.20
3868;DHT22;1949;48.152;11.528;2022-09-16T08:16:26;20.30;50.50
3868;DHT22;1949;48.152;11.528;2022-09-16T08:18:56;20.30;50.40
3868;DHT22;1949;48.152;11.528;2022-09-16T08:21:24;20.30;50.30
3868;DHT22;1949;48.152;11.528;2022-09-16T08:23:53;20.30;50.20
3868;DHT22;1949;48.152;11.528;2022-09-16T08:26:19;20.40;50.20
3868;DHT22;1949;48.152;11.528;2022-09-16T08:28:46;20.30;50.20
3868;DHT22;1949;48.152;11.528;2022-09-16T08:31:13;20.40;50.30
3868;DHT22;1949;48.152;11.528;2022-09-16T08:33:43;20.40;50.30
3868;DHT22;1949;48.152;11.528;2022-09-16T08:36:20;20.40;50.30
3868;DHT22;1949;48.152;11.528;2022-09-16T08:38:48;20.40;50.30
3868;DHT22;1949;48.152;11.528;2022-09-16T08:44:58;20.50;50.30
3868;DHT22;1949;48.152;11.528;2022-09-16T08:48:30;20.50;50.20
3868;DHT22;1949;48.152;11.528;2022-09-16T08:50:32;20.50;50.10
3868;DHT22;1949;48.152;11.528;2022-09-16T08:53:02;20.50;50.10
3868;DHT22;1949;48.152;11.528;2022-09-16T08:55:33;20.50;50.10
3868;DHT22;1949;48.152;11.528;2022-09-16T08:58:10;20.40;50.10
3868;DHT22;1949;48.152;11.528;2022-09-16T09:00:38;20.40;50.20
3868;DHT22;1949;48.152;11.528;2022-09-16T09:30:26;20.60;50.40
3868;DHT22;1949;48.152;11.528;2022-09-16T09:38:37;20.50;50.10
3868;DHT22;1949;48.152;11.528;2022-09-16T09:41:17;20.50;50.30
3868;DHT22;1949;48.152;11.528;2022-09-16T09:46:38;20.50;50.40
3868;DHT22;1949;48.152;11.528;2022-09-16T09:49:38;20.40;50.40
3868;DHT22;1949;48.152;11.528;2022-09-16T09:52:09;20.40;50.60
3868;DHT22;1949;48.152;11.528;2022-09-16T09:54:52;20.50;50.60
3868;DHT22;1949;48.152;11.528;2022-09-16T09:57:28;20.40;50.50
3868;DHT22;1949;48.152;11.528;2022-09-16T10:00:11;20.40;50.60
3868;DHT22;1949;48.152;11.528;2022-09-16T10:02:40;20.40;50.60
3868;DHT22;1949;48.152;11.528;2022-09-16T10:05:27;20.40;50.70
3868;DHT22;1949;48.152;11.528;2022-09-16T10:08:03;20.40;50.80
3868;DHT22;1949;48.152;11.528;2022-09-16T10:10:32;20.40;50.90
3868;DHT22;1949;48.152;11.528;2022-09-16T10:13:12;20.40;51.00
3868;DHT22;1949;48.152;11.528;2022-09-16T10:15:38;20.40;51.00
3868;DHT22;1949;48.152;11.528;2022-09-16T10:18:27;20.50;51.10
3868;DHT22;1949;48.152;11.528;2022-09-16T10:23:34;20.50;51.20
3868;DHT22;1949;48.152;11.528;2022-09-16T10:26:24;20.50;51.20
3868;DHT22;1949;48.152;11.528;2022-09-16T10:29:10;20.60;51.20
3868;DHT22;1949;48.152;11.528;2022-09-16T10:31:39;20.60;51.40
3868;DHT22;1949;48.152;11.528;2022-09-16T10:34:31;20.60;51.40
3868;DHT22;1949;48.152;11.528;2022-09-16T10:39:34;20.60;51.40
3868;DHT22;1949;48.152;11.528;2022-09-16T10:42:01;20.70;51.40
3868;DHT22;1949;48.152;11.528;2022-09-16T10:44:30;20.70;51.40
3868;DHT22;1949;48.152;11.528;2022-09-16T10:47:05;20.70;51.40
3868;DHT22;1949;48.152;11.528;2022-09-16T10:49:46;20.70;51.40
3868;DHT22;1949;48.152;11.528;2022-09-16T10:52:31;20.70;51.40
3868;DHT22;1949;48.152;11.528;2022-09-16T10:55:11;20.70;51.50
3868;DHT22;1949;48.152;11.528;2022-09-16T10:57:48;20.70;51.00
3868;DHT22;1949;48.152;11.528;2022-09-16T11:00:20;20.60;50.60
3868;DHT22;1949;48.152;11.528;2022-09-16T11:03:56;20.50;50.50
3868;DHT22;1949;48.152;11.528;2022-09-16T11:06:17;20.50;50.70
3868;DHT22;1949;48.152;11.528;2022-09-16T11:12:30;20.40;50.60
3868;DHT22;1949;48.152;11.528;2022-09-16T11:31:00;20.20;50.50
3868;DHT22;1949;48.152;11.528;2022-09-16T11:42:03;20.30;50.60
3868;DHT22;1949;48.152;11.528;2022-09-16T11:47:46;20.20;50.20
3868;DHT22;1949;48.152;11.528;2022-09-16T11:50:29;20.10;50.20
3868;DHT22;1949;48.152;11.528;2022-09-16T11:55:53;20.10;50.40
3868;DHT22;1949;48.152;11.528;2022-09-16T11:58:36;20.10;50.30
3868;DHT22;1949;48.152;11.528;2022-09-16T12:01:27;20.00;50.10
3868;DHT22;1949;48.152;11.528;2022-09-16T12:10:10;20.00;50.30
3868;DHT22;1949;48.152;11.528;2022-09-16T12:12:37;20.00;50.40
3868;DHT22;1949;48.152;11.528;2022-09-16T12:18:23;20.00;50.30
3868;DHT22;1949;48.152;11.528;2022-09-16T12:21:04;20.00;50.30
3868;DHT22;1949;48.152;11.528;2022-09-16T12:23:34;20.00;50.30
3868;DHT22;1949;48.152;11.528;2022-09-16T12:26:23;20.00;50.20
3868;DHT22;1949;48.152;11.528;2022-09-16T12:30:01;20.00;50.30
3868;DHT22;1949;48.152;11.528;2022-09-16T12:32:09;20.00;50.10
3868;DHT22;1949;48.152;11.528;2022-09-16T12:34:58;20.00;50.00
3868;DHT22;1949;48.152;11.528;2022-09-16T12:37:40;19.90;49.80
3868;DHT22;1949;48.152;11.528;2022-09-16T12:40:23;19.90;50.00
3868;DHT22;1949;48.152;11.528;2022-09-16T13:01:41;19.70;50.20
3868;DHT22;1949;48.152;11.528;2022-09-16T13:04:20;19.70;50.10
3868;DHT22;1949;48.152;11.528;2022-09-16T13:06:51;19.70;50.10
3868;DHT22;1949;48.152;11.528;2022-09-16T13:09:29;19.70;50.10
3868;DHT22;1949;48.152;11.528;2022-09-16T13:12:21;19.70;49.90
3868;DHT22;1949;48.152;11.528;2022-09-16T13:14:58;19.60;49.90
3868;DHT22;1949;48.152;11.528;2022-09-16T13:17:38;19.60;50.00
3868;DHT22;1949;48.152;11.528;2022-09-16T13:20:18;19.60;50.00
3868;DHT22;1949;48.152;11.528;2022-09-16T13:25:49;19.60;50.00
3868;DHT22;1949;48.152;11.528;2022-09-16T13:28:35;19.60;50.00
3868;DHT22;1949;48.152;11.528;2022-09-16T13:31:28;19.60;49.90
3868;DHT22;1949;48.152;11.528;2022-09-16T13:39:05;19.70;49.90
3868;DHT22;1949;48.152;11.528;2022-09-16T13:41:41;19.70;49.80
3868;DHT22;1949;48.152;11.528;2022-09-16T13:52:36;19.70;49.60
3868;DHT22;1949;48.152;11.528;2022-09-16T13:55:05;19.80;49.50
3868;DHT22;1949;48.152;11.528;2022-09-16T13:57:56;19.70;49.50
3868;DHT22;1949;48.152;11.528;2022-09-16T14:00:32;19.70;49.50
3868;DHT22;1949;48.152;11.528;2022-09-16T14:06:42;19.70;49.50
3868;DHT22;1949;48.152;11.528;2022-09-16T14:09:34;19.70;49.60
3868;DHT22;1949;48.152;11.528;2022-09-16T14:15:02;19.60;49.40
3868;DHT22;1949;48.152;11.528;2022-09-16T14:17:42;19.60;49.40
3868;DHT22;1949;48.152;11.528;2022-09-16T14:20:15;19.60;49.50
3868;DHT22;1949;48.152;11.528;2022-09-16T14:22:42;19.60;49.60
3868;DHT22;1949;48.152;11.528;2022-09-16T14:25:30;19.50;49.40
3868;DHT22;1949;48.152;11.528;2022-09-16T14:28:14;19.50;49.60
3868;DHT22;1949;48.152;11.528;2022-09-16T14:31:01;19.50;49.30
3868;DHT22;1949;48.152;11.528;2022-09-16T14:36:11;19.50;49.40
3868;DHT22;1949;48.152;11.528;2022-09-16T14:39:09;19.30;49.20
3868;DHT22;1949;48.152;11.528;2022-09-16T14:41:43;19.30;49.30
3868;DHT22;1949;48.152;11.528;2022-09-16T14:44:22;19.20;49.50
3868;DHT22;1949;48.152;11.528;2022-09-16T14:46:57;19.20;49.70
3868;DHT22;1949;48.152;11.528;2022-09-16T14:49:25;19.20;49.70
3868;DHT22;1949;48.152;11.528;2022-09-16T14:51:57;19.20;49.90
3868;DHT22;1949;48.152;11.528;2022-09-16T14:54:25;19.30;49.90
3868;DHT22;1949;48.152;11.528;2022-09-16T14:57:03;19.30;49.70
3868;DHT22;1949;48.152;11.528;2022-09-16T14:59:32;19.30;49.50
3868;DHT22;1949;48.152;11.528;2022-09-16T15:02:28;19.30;49.40
3868;DHT22;1949;48.152;11.528;2022-09-16T15:05:36;19.30;49.40
3868;DHT22;1949;48.152;11.528;2022-09-16T15:10:47;19.00;49.30
3868;DHT22;1949;48.152;11.528;2022-09-16T15:13:14;19.00;49.50
3868;DHT22;1949;48.152;11.528;2022-09-16T15:16:23;18.90;49.70
3868;DHT22;1949;48.152;11.528;2022-09-16T15:21:19;18.90;49.50
3868;DHT22;1949;48.152;11.528;2022-09-16T15:23:50;18.80;49.50
3868;DHT22;1949;48.152;11.528;2022-09-16T15:26:25;18.90;49.70
3868;DHT22;1949;48.152;11.528;2022-09-16T15:29:02;18.90;49.70
3868;DHT22;1949;48.152;11.528;2022-09-16T15:31:39;18.90;49.60
3868;DHT22;1949;48.152;11.528;2022-09-16T15:34:26;18.90;49.80
3868;DHT22;1949;48.152;11.528;2022-09-16T15:36:57;18.90;49.80
3868;DHT22;1949;48.152;11.528;2022-09-16T15:39:38;18.90;49.80
3868;DHT22;1949;48.152;11.528;2022-09-16T15:44:48;18.80;49.40
3868;DHT22;1949;48.152;11.528;2022-09-16T15:47:23;18.70;49.70
3868;DHT22;1949;48.152;11.528;2022-09-16T15:50:06;18.70;49.80
3868;DHT22;1949;48.152;11.528;2022-09-16T15:53:00;18.60;49.70
3868;DHT22;1949;48.152;11.528;2022-09-16T15:58:19;18.50;49.60
3868;DHT22;1949;48.152;11.528;2022-09-16T16:01:06;18.50;50.00
3868;DHT22;1949;48.152;11.528;2022-09-16T16:03:54;18.50;50.20
3868;DHT22;1949;48.152;11.528;2022-09-16T16:09:33;18.60;50.00
3868;DHT22;1949;48.152;11.528;2022-09-16T16:12:08;18.60;50.00
3868;DHT22;1949;48.152;11.528;2022-09-16T16:14:36;18.50;50.00
3868;DHT22;1949;48.152;11.528;2022-09-16T16:19:35;18.50;50.10
3868;DHT22;1949;48.152;11.528;2022-09-16T16:22:07;18.50;50.20
3868;DHT22;1949;48.152;11.528;2022-09-16T16:24:45;18.50;50.10
3868;DHT22;1949;48.152;11.528;2022-09-16T16:27:14;18.40;50.00
3868;DHT22;1949;48.152;11.528;2022-09-16T16:29:45;18.40;50.20
3868;DHT22;1949;48.152;11.528;2022-09-16T16:32:27;18.30;50.20
3868;DHT22;1949;48.152;11.528;2022-09-16T16:34:53;18.30;50.30
3868;DHT22;1949;48.152;11.528;2022-09-16T16:37:24;18.40;50.50
3868;DHT22;1949;48.152;11.528;2022-09-16T16:39:52;18.50;50.40
3868;DHT22;1949;48.152;11.528;2022-09-16T16:42:19;18.50;50.20
3868;DHT22;1949;48.152;11.528;2022-09-16T16:44:45;18.40;50.10
3868;DHT22;1949;48.152;11.528;2022-09-16T16:47:12;18.30;50.00
3868;DHT22;1949;48.152;11.528;2022-09-16T16:49:43;18.30;50.10
3868;DHT22;1949;48.152;11.528;2022-09-16T16:52:09;18.20;50.20
3868;DHT22;1949;48.152;11.528;2022-09-16T16:54:36;18.20;50.40
3868;DHT22;1949;48.152;11.528;2022-09-16T16:57:03;18.20;50.50
3868;DHT22;1949;48.152;11.528;2022-09-16T16:59:29;18.10;50.50
3868;DHT22;1949;48.152;11.528;2022-09-16T17:02:10;18.10;50.60
3868;DHT22;1949;48.152;11.528;2022-09-16T17:04:37;18.10;50.50
3868;DHT22;1949;48.152;11.528;2022-09-16T17:07:09;18.10;50.40
3868;DHT22;1949;48.152;11.528;2022-09-16T17:09:37;18.00;50.30
3868;DHT22;1949;48.152;11.528;2022-09-16T17:12:04;18.00;50.60
3868;DHT22;1949;48.152;11.528;2022-09-16T17:14:31;18.00;50.70
3868;DHT22;1949;48.152;11.528;2022-09-16T17:16:58;18.00;50.70
3868;DHT22;1949;48.152;11.528;2022-09-16T17:19:25;18.00;50.80
3868;DHT22;1949;48.152;11.528;2022-09-16T17:21:57;18.00;50.80
3868;DHT22;1949;48.152;11.528;2022-09-16T17:24:23;18.10;50.60
3868;DHT22;1949;48.152;11.528;2022-09-16T17:26:49;18.10;50.60
3868;DHT22;1949;48.152;11.528;2022-09-16T17:29:16;18.10;50.80
3868;DHT22;1949;48.152;11.528;2022-09-16T17:31:44;18.10;50.70
3868;DHT22;1949;48.152;11.528;2022-09-16T17:34:12;18.10;50.70
3868;DHT22;1949;48.152;11.528;2022-09-16T17:36:41;18.10;50.60
3868;DHT22;1949;48.152;11.528;2022-09-16T17:39:12;18.10;50.60
3868;DHT22;1949;48.152;11.528;2022-09-16T17:41:40;18.10;50.40
3868;DHT22;1949;48.152;11.528;2022-09-16T17:44:09;18.10;50.40
3868;DHT22;1949;48.152;11.528;2022-09-16T17:46:35;18.10;50.40
3868;DHT22;1949;48.152;11.528;2022-09-16T17:49:06;18.00;50.30
3868;DHT22;1949;48.152;11.528;2022-09-16T17:51:33;18.00;50.40
3868;DHT22;1949;48.152;11.528;2022-09-16T17:53:59;17.90;50.40
3868;DHT22;1949;48.152;11.528;2022-09-16T17:56:25;17.90;50.30
3868;DHT22;1949;48.152;11.528;2022-09-16T17:58:52;17.90;50.30
3868;DHT22;1949;48.152;11.528;2022-09-16T18:01:21;17.80;50.50
3868;DHT22;1949;48.152;11.528;2022-09-16T18:03:49;17.80;50.50
3868;DHT22;1949;48.152;11.528;2022-09-16T18:08:44;17.80;50.90
3868;DHT22;1949;48.152;11.528;2022-09-16T18:11:11;17.90;50.70
3868;DHT22;1949;48.152;11.528;2022-09-16T18:13:38;17.90;50.80
3868;DHT22;1949;48.152;11.528;2022-09-16T18:16:06;18.00;50.90
3868;DHT22;1949;48.152;11.528;2022-09-16T18:18:34;18.10;50.90
3868;DHT22;1949;48.152;11.528;2022-09-16T18:21:04;18.10;50.50
3868;DHT22;1949;48.152;11.528;2022-09-16T18:23:30;18.10;50.30
3868;DHT22;1949;48.152;11.528;2022-09-16T18:26:08;18.10;50.40
3868;DHT22;1949;48.152;11.528;2022-09-16T18:28:39;18.10;50.30
3868;DHT22;1949;48.152;11.528;2022-09-16T18:31:20;18.00;50.40
3868;DHT22;1949;48.152;11.528;2022-09-16T18:33:50;18.00;50.50
3868;DHT22;1949;48.152;11.528;2022-09-16T18:36:16;18.00;50.40
3868;DHT22;1949;48.152;11.528;2022-09-16T18:38:49;18.00;50.40
3868;DHT22;1949;48.152;11.528;2022-09-16T18:41:21;17.90;50.50
3868;DHT22;1949;48.152;11.528;2022-09-16T18:43:51;17.90;50.50
3868;DHT22;1949;48.152;11.528;2022-09-16T18:46:27;17.90;50.40
3868;DHT22;1949;48.152;11.528;2022-09-16T18:48:54;17.90;50.60
3868;DHT22;1949;48.152;11.528;2022-09-16T18:51:25;17.90;50.40
3868;DHT22;1949;48.152;11.528;2022-09-16T18:53:54;17.90;50.50
3868;DHT22;1949;48.152;11.528;2022-09-16T18:56:25;17.90;50.70
3868;DHT22;1949;48.152;11.528;2022-09-16T18:58:52;17.90;50.80
3868;DHT22;1949;48.152;11.528;2022-09-16T19:01:29;17.90;50.70
3868;DHT22;1949;48.152;11.528;2022-09-16T19:03:59;17.90;50.60
3868;DHT22;1949;48.152;11.528;2022-09-16T19:06:28;17.90;50.70
3868;DHT22;1949;48.152;11.528;2022-09-16T19:08:54;18.00;50.80
3868;DHT22;1949;48.152;11.528;2022-09-16T19:11:21;18.00;50.80
3868;DHT22;1949;48.152;11.528;2022-09-16T19:13:48;18.00;50.90
3868;DHT22;1949;48.152;11.528;2022-09-16T19:16:19;18.10;51.00
3868;DHT22;1949;48.152;11.528;2022-09-16T19:18:50;18.10;51.00
3868;DHT22;1949;48.152;11.528;2022-09-16T19:21:17;18.20;50.90
3868;DHT22;1949;48.152;11.528;2022-09-16T19:23:55;18.30;50.80
3868;DHT22;1949;48.152;11.528;2022-09-16T19:26:23;18.30;50.70
3868;DHT22;1949;48.152;11.528;2022-09-16T19:28:49;18.30;50.80
3868;DHT22;1949;48.152;11.528;2022-09-16T19:31:17;18.30;50.70
3868;DHT22;1949;48.152;11.528;2022-09-16T19:33:44;18.30;50.80
3868;DHT22;1949;48.152;11.528;2022-09-16T19:36:19;18.30;50.70
3868;DHT22;1949;48.152;11.528;2022-09-16T19:38:48;18.30;50.80
3868;DHT22;1949;48.152;11.528;2022-09-16T19:41:15;18.30;50.80
3868;DHT22;1949;48.152;11.528;2022-09-16T19:43:42;18.30;50.70
3868;DHT22;1949;48.152;11.528;2022-09-16T19:46:13;18.30;50.70
3868;DHT22;1949;48.152;11.528;2022-09-16T19:48:41;18.30;50.80
3868;DHT22;1949;48.152;11.528;2022-09-16T19:51:10;18.30;50.90
3868;DHT22;1949;48.152;11.528;2022-09-16T19:53:39;18.30;50.70
3868;DHT22;1949;48.152;11.528;2022-09-16T19:56:22;18.30;50.50
3868;DHT22;1949;48.152;11.528;2022-09-16T19:58:56;18.20;50.50
3868;DHT22;1949;48.152;11.528;2022-09-16T20:01:31;18.10;50.60
3868;DHT22;1949;48.152;11.528;2022-09-16T20:04:01;18.10;50.70
3868;DHT22;1949;48.152;11.528;2022-09-16T20:06:51;18.00;50.50
3868;DHT22;1949;48.152;11.528;2022-09-16T20:09:17;18.00;50.70
3868;DHT22;1949;48.152;11.528;2022-09-16T20:11:46;17.90;50.70
3868;DHT22;1949;48.152;11.528;2022-09-16T20:14:17;17.90;50.80
3868;DHT22;1949;48.152;11.528;2022-09-16T20:16:49;17.90;50.80
3868;DHT22;1949;48.152;11.528;2022-09-16T20:19:20;17.90;50.90
3868;DHT22;1949;48.152;11.528;2022-09-16T20:21:47;17.90;50.80
3868;DHT22;1949;48.152;11.528;2022-09-16T20:24:18;17.80;50.90
3868;DHT22;1949;48.152;11.528;2022-09-16T20:26:47;17.90;51.00
3868;DHT22;1949;48.152;11.528;2022-09-16T20:29:15;17.90;51.10
3868;DHT22;1949;48.152;11.528;2022-09-16T20:32:00;17.90;50.80
3868;DHT22;1949;48.152;11.528;2022-09-16T20:34:26;17.90;50.70
3868;DHT22;1949;48.152;11.528;2022-09-16T20:36:52;17.90;50.70
3868;DHT22;1949;48.152;11.528;2022-09-16T20:39:21;17.80;50.70
3868;DHT22;1949;48.152;11.528;2022-09-16T20:41:55;17.80;50.90
3868;DHT22;1949;48.152;11.528;2022-09-16T20:44:27;17.80;50.80
3868;DHT22;1949;48.152;11.528;2022-09-16T20:46:57;17.80;50.70
3868;DHT22;1949;48.152;11.528;2022-09-16T20:49:23;17.80;50.80
3868;DHT22;1949;48.152;11.528;2022-09-16T20:51:51;17.80;50.90
3868;DHT22;1949;48.152;11.528;2022-09-16T20:54:17;17.80;50.90
3868;DHT22;1949;48.152;11.528;2022-09-16T20:56:45;17.90;51.00
3868;DHT22;1949;48.152;11.528;2022-09-16T20:59:15;17.80;50.80
3868;DHT22;1949;48.152;11.528;2022-09-16T21:01:41;17.80;50.80
3868;DHT22;1949;48.152;11.528;2022-09-16T21:04:17;17.70;50.80
3868;DHT22;1949;48.152;11.528;2022-09-16T21:06:46;17.70;50.80
3868;DHT22;1949;48.152;11.528;2022-09-16T21:09:13;17.70;50.70
3868;DHT22;1949;48.152;11.528;2022-09-16T21:11:47;17.70;50.90
3868;DHT22;1949;48.152;11.528;2022-09-16T21:14:16;17.80;51.00
3868;DHT22;1949;48.152;11.528;2022-09-16T21:16:48;17.70;50.90
3868;DHT22;1949;48.152;11.528;2022-09-16T21:19:14;17.70;51.00